メインページ
METAR-TAF:

METAR-TAF

空港 :

ナンディ国際空港

ナンディ, フィジー

緯度: 17-45S, 経度: 177-27E, 海抜: 13m

現時点の気象観測

当レポートは43分前の01:00(UTC)に作成
西の風 6kt
気温 29°C
湿度 62%
気圧 1011 hPa
視程10km以上
高度2700ftの雲は散在している
高度4800ftの雲は散在している
高度11000ftの千切れ雲あり

METAR: NFFN 190100Z 26006KT 9999 SCT027 SCT048 BKN110 29/21 Q1011 NOSIG

時間: 13:43 (01:43 UTC)

予報

当レポートは2時間39分前の23:04(UTC)に作成
予報は19日の 00時(UTC)から 19日の 24時(UTC)まで有効
の風 7kt
視程10km以上
高度2600ftの雲は散在している
高度4800ftの雲は散在している
高度11000ftの千切れ雲あり
弱いにわか雨
19日の 00時(UTC)から 19日の 06時(UTC)まで一時的に
視程: 5000m
高度1500ftの千切れ雲あり
にわか雨
19日の 0700時(UTC)から
南/南東の風 6kt
視程10km以上
高度3000ftの雲は散在している
19日の 22時(UTC)から 19日の 24時(UTC)まで徐々に
西の風 12kt

TAF: NFFN 182304Z 1900/1924 09007KT 9999 -SHRA SCT026 SCT048 BKN110 TEMPO 1900/1906 5000 SHRA BKN015 FM190700 15006KT 9999 SCT030 BECMG 1922/1924 26012KT

4,000以上の空港の気象観測と天気予報(METAR報とTAF報)

利用可能な観測所は地図上に黄色い丸と赤い丸で示す。

丸の上にカーソルを重ねると観測所名を参照できる。

次にクリックすると気象観測と天気予報を参照できる。

マップの切り替え:黒色「×」印の緑ボタンをクリックして拡大、「-」印の緑ボタンをクリックして縮小、緑色の三角印をクリックして隣りの地図に切り替え


METAR-TAF: